Time;durP1;ratioP1;P1;durP2;ratioP2;P2;SDS_P1;SDS_P2;PMS_P1;PMS_P2;Temp;Humidity;BMP_temperature;BMP_pressure;BME280_temperature;BME280_humidity;BME280_pressure;Samples;Min_cycle;Max_cycle;Signal;HPM_P1;HPM_P2
2021/01/04 00:03:00;;;;;;;67.37;29.05;;;;;;;1.37;81.63;98690.61;2067354;86;21769;-63
2021/01/04 00:06:02;;;;;;;62.67;26.93;;;;;;;1.51;81.68;98692.39;2082186;85;21292;-64
2021/01/04 00:09:05;;;;;;;62.78;26.23;;;;;;;1.58;81.53;98687.04;2082453;85;21744;-64
2021/01/04 00:12:07;;;;;;;60.78;25.32;;;;;;;1.74;81.36;98689.64;2067123;86;21332;-64
2021/01/04 00:15:09;;;;;;;55.90;26.60;;;;;;;1.61;80.87;98685.23;2082329;86;21757;-65
2021/01/04 00:18:11;;;;;;;61.77;27.85;;;;;;;1.56;80.90;98681.45;2076417;86;21320;-64
2021/01/04 00:21:14;;;;;;;64.53;29.40;;;;;;;1.49;80.96;98676.05;2082668;85;21288;-64
2021/01/04 00:24:16;;;;;;;66.15;27.48;;;;;;;1.45;81.23;98680.05;2067536;86;21170;-63
2021/01/04 00:27:18;;;;;;;62.20;28.17;;;;;;;1.44;81.44;98683.52;2082300;85;21752;-64
2021/01/04 00:30:20;;;;;;;58.15;27.13;;;;;;;1.37;81.60;98684.98;2067569;86;21175;-64
2021/01/04 00:33:23;;;;;;;58.20;27.20;;;;;;;1.40;81.88;98684.52;2082140;85;21752;-64
2021/01/04 00:36:25;;;;;;;56.13;24.90;;;;;;;1.43;81.87;98679.26;2067134;86;21337;-67
2021/01/04 00:39:29;;;;;;;56.33;25.37;;;;;;;1.48;81.82;98685.14;2082609;85;21314;-66
2021/01/04 00:42:31;;;;;;;61.08;26.50;;;;;;;1.47;81.74;98688.64;2066996;85;21304;-67
2021/01/04 00:45:34;;;;;;;58.80;27.02;;;;;;;1.45;81.78;98686.52;2082375;85;21298;-65
2021/01/04 00:48:36;;;;;;;62.83;28.40;;;;;;;1.51;81.96;98687.67;2067350;86;21305;-64
2021/01/04 00:51:38;;;;;;;66.33;29.27;;;;;;;1.58;81.73;98686.62;2082771;85;21125;-64
2021/01/04 00:54:40;;;;;;;63.65;28.42;;;;;;;1.56;81.74;98687.92;2076637;86;21613;-66
2021/01/04 00:57:42;;;;;;;58.83;25.52;;;;;;;1.49;81.54;98698.02;2082790;85;21150;-65
2021/01/04 01:00:44;;;;;;;58.17;27.17;;;;;;;1.47;81.78;98695.09;2067360;86;21326;-65
2021/01/04 01:03:46;;;;;;;57.25;26.42;;;;;;;1.45;82.05;98698.15;2082663;85;21149;-64
2021/01/04 01:06:48;;;;;;;62.70;27.75;;;;;;;1.44;82.18;98701.61;2076560;86;21170;-64
2021/01/04 01:09:51;;;;;;;60.92;26.95;;;;;;;1.51;81.97;98698.02;2082799;85;21161;-65
2021/01/04 01:12:53;;;;;;;59.95;26.30;;;;;;;1.43;81.88;98692.19;2067454;86;21147;-64
2021/01/04 01:15:55;;;;;;;69.42;29.63;;;;;;;1.32;81.75;98696.32;2082534;85;21767;-64
2021/01/04 01:18:57;;;;;;;63.73;27.95;;;;;;;1.21;82.07;98695.31;2067259;86;21335;-64
2021/01/04 01:21:59;;;;;;;61.48;28.40;;;;;;;1.23;82.16;98693.53;2082514;85;21747;-65
2021/01/04 01:25:01;;;;;;;55.48;23.50;;;;;;;1.29;82.19;98691.23;2067415;86;21161;-65
2021/01/04 01:28:04;;;;;;;61.23;24.18;;;;;;;1.18;81.64;98687.64;2062707;85;21757;-64
2021/01/04 01:31:06;;;;;;;59.60;25.97;;;;;;;1.06;81.68;98688.77;2067266;86;21305;-64
2021/01/04 01:34:08;;;;;;;59.40;25.35;;;;;;;1.02;81.88;98688.44;2082629;85;21304;-65
2021/01/04 01:37:11;;;;;;;118.87;52.50;;;;;;;0.93;81.85;98686.93;2082438;85;21733;-66
2021/01/04 01:40:13;;;;;;;110.63;46.53;;;;;;;0.97;82.27;98685.98;2082558;85;21193;-65
2021/01/04 01:43:15;;;;;;;152.17;57.85;;;;;;;1.02;82.24;98675.10;2082346;85;21744;-64
2021/01/04 01:46:18;;;;;;;80.22;37.28;;;;;;;1.00;82.55;98676.86;2076740;86;21764;-64
2021/01/04 01:49:20;;;;;;;65.03;29.63;;;;;;;1.18;82.54;98665.23;2082309;85;21731;-64
2021/01/04 01:52:22;;;;;;;65.40;27.87;;;;;;;1.32;81.90;98668.77;2076501;86;21186;-64
2021/01/04 01:55:25;;;;;;;56.58;23.77;;;;;;;1.23;81.12;98665.56;2082418;85;21751;-63
2021/01/04 01:58:27;;;;;;;59.83;24.77;;;;;;;0.92;81.06;98667.60;2067617;86;21166;-64
2021/01/04 02:01:29;;;;;;;98.30;42.13;;;;;;;0.82;81.40;98668.26;2082363;85;21744;-64
2021/01/04 02:04:31;;;;;;;92.82;44.30;;;;;;;0.80;81.81;98670.88;2067592;86;21187;-64
2021/01/04 02:07:33;;;;;;;96.95;47.98;;;;;;;0.71;82.08;98666.41;2082370;85;21328;-64
2021/01/04 02:10:35;;;;;;;108.63;50.20;;;;;;;0.67;82.05;98668.19;2076942;86;21315;-64
2021/01/04 02:13:37;;;;;;;103.45;47.67;;;;;;;0.67;82.15;98659.99;2082461;85;21331;-64
2021/01/04 02:16:40;;;;;;;107.85;47.20;;;;;;;0.65;82.23;98664.36;2076708;86;21768;-63
2021/01/04 02:19:42;;;;;;;;;;;;;;;0.70;82.09;98664.24;2084686;85;21312;-64
2021/01/04 02:22:45;;;;;;;92.27;38.93;;;;;;;0.67;81.94;98663.03;2067364;86;20291;-63
2021/01/04 02:25:47;;;;;;;82.78;36.35;;;;;;;0.68;82.39;98671.19;2082481;85;21749;-64
2021/01/04 02:28:49;;;;;;;73.62;30.70;;;;;;;0.68;82.00;98675.90;2082739;85;21299;-65
2021/01/04 02:31:51;;;;;;;64.35;27.95;;;;;;;0.67;81.63;98675.48;2082720;85;21173;-64
2021/01/04 02:34:53;;;;;;;59.95;26.10;;;;;;;0.57;81.46;98676.58;2067225;86;21746;-64
2021/01/04 02:37:55;;;;;;;90.95;38.48;;;;;;;0.50;81.60;98681.06;2082261;85;21307;-63
2021/01/04 02:40:57;;;;;;;81.75;34.53;;;;;;;0.50;81.65;98682.34;2067405;86;21634;-64
2021/01/04 02:44:00;;;;;;;67.90;30.30;;;;;;;0.44;81.72;98686.78;2082162;85;21291;-64
2021/01/04 02:47:02;;;;;;;87.33;36.25;;;;;;;0.42;81.86;98685.53;2076583;86;21165;-64
2021/01/04 02:50:04;;;;;;;72.80;31.77;;;;;;;0.43;82.05;98687.66;2082709;85;21304;-64
2021/01/04 02:53:06;;;;;;;65.47;28.87;;;;;;;0.50;82.00;98696.96;2082439;85;21162;-64
2021/01/04 02:56:08;;;;;;;63.95;28.23;;;;;;;0.59;82.09;98693.33;2062844;85;21622;-64
2021/01/04 02:59:10;;;;;;;61.98;28.27;;;;;;;0.65;81.57;98690.63;2082197;85;21296;-63
2021/01/04 03:02:13;;;;;;;64.53;29.00;;;;;;;0.58;81.52;98692.94;2082429;85;21592;-64
2021/01/04 03:05:16;;;;;;;66.95;29.48;;;;;;;0.63;82.24;98681.63;2082407;85;21747;-63
2021/01/04 03:08:19;;;;;;;68.15;29.32;;;;;;;0.88;82.20;98681.05;2045792;86;21209;-64
2021/01/04 03:11:21;;;;;;;69.17;31.55;;;;;;;0.82;81.34;98688.91;2082418;85;21755;-64
2021/01/04 03:14:23;;;;;;;66.35;28.17;;;;;;;0.71;81.27;98687.89;2067111;86;21304;-63
2021/01/04 03:17:25;;;;;;;66.22;28.17;;;;;;;0.63;81.34;98693.25;2082471;85;21625;-64
2021/01/04 03:20:28;;;;;;;;;;;;;;;0.66;81.67;98701.34;2078886;86;21756;-64
2021/01/04 03:23:30;;;;;;;64.62;27.15;;;;;;;0.54;81.42;98698.59;2118451;84;20499;-64
2021/01/04 03:26:32;;;;;;;65.32;28.50;;;;;;;0.44;81.45;98696.66;2118224;84;21309;-64
2021/01/04 03:29:34;;;;;;;67.90;30.10;;;;;;;0.42;81.73;98698.89;2118291;84;21288;-63
2021/01/04 03:32:36;;;;;;;77.30;33.00;;;;;;;0.38;82.01;98698.55;2118485;84;21294;-64
2021/01/04 03:35:38;;;;;;;67.40;29.37;;;;;;;0.41;82.10;98699.77;2118680;84;21155;-63
2021/01/04 03:38:40;;;;;;;62.20;27.30;;;;;;;0.50;82.01;98700.83;2118517;84;21294;-64
2021/01/04 03:41:42;;;;;;;55.75;25.77;;;;;;;0.38;82.00;98704.54;2118333;84;21313;-64
2021/01/04 03:44:45;;;;;;;54.50;24.18;;;;;;;0.19;82.34;98713.12;2082287;85;21324;-66
2021/01/04 03:47:47;;;;;;;52.13;22.60;;;;;;;0.23;82.55;98703.15;2076875;86;21315;-65
2021/01/04 03:50:49;;;;;;;57.73;25.82;;;;;;;0.13;82.26;98709.35;2082325;85;21313;-64
2021/01/04 03:53:51;;;;;;;55.52;23.32;;;;;;;0.19;82.28;98715.70;2067043;86;21332;-66
2021/01/04 03:56:54;;;;;;;54.15;25.37;;;;;;;0.20;82.41;98718.66;2082471;85;21296;-65
2021/01/04 03:59:56;;;;;;;56.00;25.08;;;;;;;0.13;82.45;98718.38;2082547;85;21303;-64
2021/01/04 04:02:58;;;;;;;58.52;25.85;;;;;;;0.05;82.56;98719.00;2067130;86;21305;-63
2021/01/04 04:06:00;;;;;;;62.00;28.10;;;;;;;0.04;82.42;98716.84;2082681;85;21307;-64
2021/01/04 04:09:02;;;;;;;55.48;25.62;;;;;;;0.06;82.33;98721.55;2076674;86;21161;-65
2021/01/04 04:12:05;;;;;;;78.17;33.70;;;;;;;-0.05;82.21;98725.61;2082436;85;21311;-65
2021/01/04 04:15:07;;;;;;;80.90;33.92;;;;;;;-0.15;82.46;98722.80;2076598;86;21614;-64
2021/01/04 04:18:10;;;;;;;88.03;37.05;;;;;;;-0.21;82.42;98725.52;2082200;86;21280;-64
2021/01/04 04:21:12;;;;;;;92.20;38.45;;;;;;;-0.15;82.62;98724.55;2067327;86;21781;-65
2021/01/04 04:24:15;;;;;;;111.10;47.67;;;;;;;-0.06;82.96;98726.52;2082431;85;21748;-64
2021/01/04 04:27:17;;;;;;;90.00;39.08;;;;;;;0.16;82.55;98733.83;2082843;85;21117;-64
2021/01/04 04:30:21;;;;;;;73.47;30.23;;;;;;;0.06;81.95;98731.86;2082406;85;21311;-64
2021/01/04 04:33:23;;;;;;;74.42;32.80;;;;;;;-0.05;81.96;98733.34;2082585;85;21312;-64
2021/01/04 04:36:27;;;;;;;81.35;33.23;;;;;;;-0.15;82.15;98740.85;2082621;85;21741;-63
2021/01/04 04:39:29;;;;;;;90.55;37.78;;;;;;;-0.16;82.38;98735.28;2082243;85;21327;-63
2021/01/04 04:42:31;;;;;;;109.80;47.03;;;;;;;-0.12;82.63;98732.22;2076569;86;21198;-65
2021/01/04 04:45:33;;;;;;;105.63;46.50;;;;;;;-0.06;82.47;98730.38;2082286;85;21323;-64
2021/01/04 04:48:35;;;;;;;152.38;60.40;;;;;;;-0.08;82.48;98726.97;2082499;85;21328;-63
2021/01/04 04:51:37;;;;;;;101.95;40.63;;;;;;;-0.14;82.46;98733.95;2082455;85;21311;-63
2021/01/04 04:54:40;;;;;;;128.27;49.23;;;;;;;-0.20;82.54;98731.92;2082315;85;21292;-63
2021/01/04 04:57:43;;;;;;;121.22;45.60;;;;;;;-0.15;82.72;98730.98;2082348;85;21292;-63
2021/01/04 05:00:46;;;;;;;83.55;36.58;;;;;;;-0.11;82.84;98733.92;2082681;85;21149;-63
2021/01/04 05:03:48;;;;;;;84.52;36.45;;;;;;;-0.01;83.47;98733.70;2082777;85;21154;-63
2021/01/04 05:06:50;;;;;;;76.55;32.98;;;;;;;0.12;82.72;98737.34;2082448;85;21737;-64
2021/01/04 05:09:52;;;;;;;86.55;35.73;;;;;;;0.04;82.34;98743.92;2082787;85;21153;-63
2021/01/04 05:12:55;;;;;;;66.15;30.50;;;;;;;-0.03;82.25;98756.52;2082286;85;21327;-64
2021/01/04 05:15:57;;;;;;;78.15;32.38;;;;;;;0.00;82.53;98753.91;2082635;85;21307;-64
2021/01/04 05:18:59;;;;;;;66.75;27.82;;;;;;;0.15;82.95;98764.36;2067469;86;21605;-64
2021/01/04 05:22:01;;;;;;;72.12;30.20;;;;;;;0.15;82.95;98764.36;2082791;85;21145;-64
2021/01/04 05:25:03;;;;;;;59.40;27.20;;;;;;;0.22;83.00;98774.13;2082557;85;21750;-65
2021/01/04 05:28:05;;;;;;;59.13;26.65;;;;;;;0.24;83.20;98766.74;2082774;85;21192;-64
2021/01/04 05:31:07;;;;;;;59.95;26.57;;;;;;;0.27;83.19;98765.38;2082576;85;21295;-65
2021/01/04 05:34:09;;;;;;;64.05;28.45;;;;;;;0.32;83.61;98764.03;2082238;85;21601;-63
2021/01/04 05:37:12;;;;;;;62.90;26.77;;;;;;;0.40;83.68;98762.11;2082545;85;21728;-64
2021/01/04 05:40:14;;;;;;;65.75;27.60;;;;;;;0.48;83.66;98752.48;2082578;85;21292;-65
2021/01/04 05:43:16;;;;;;;69.12;29.82;;;;;;;0.46;83.36;98759.84;2082637;85;21162;-65
2021/01/04 05:46:18;;;;;;;73.28;28.90;;;;;;;0.49;83.30;98755.48;2082374;85;21299;-65
2021/01/04 05:49:20;;;;;;;68.87;30.35;;;;;;;0.52;83.36;98750.70;2076977;86;21315;-65
2021/01/04 05:52:22;;;;;;;79.72;34.20;;;;;;;0.49;83.25;98753.36;2082762;85;21155;-64
2021/01/04 05:55:25;;;;;;;80.50;34.33;;;;;;;0.41;83.27;98751.37;2076600;86;21641;-65
2021/01/04 05:58:27;;;;;;;81.42;32.48;;;;;;;0.43;83.75;98747.89;2082636;85;21295;-67
2021/01/04 06:01:29;;;;;;;71.95;30.35;;;;;;;0.68;84.02;98741.73;2067423;86;21182;-65
2021/01/04 06:04:31;;;;;;;73.25;31.20;;;;;;;0.71;83.25;98743.41;2082724;85;21319;-65
2021/01/04 06:07:33;;;;;;;69.53;28.20;;;;;;;0.64;82.81;98740.55;2067583;86;21122;-65
2021/01/04 06:10:35;;;;;;;74.00;29.92;;;;;;;0.49;82.83;98740.45;2082260;85;21319;-65
2021/01/04 06:13:37;;;;;;;63.65;27.67;;;;;;;0.30;83.06;98740.84;2067113;86;21781;-66
2021/01/04 06:16:40;;;;;;;70.32;29.80;;;;;;;0.25;83.23;98735.36;2082493;85;21311;-64
2021/01/04 06:19:42;;;;;;;70.12;30.37;;;;;;;0.33;83.81;98731.73;2067210;86;21308;-65
2021/01/04 06:22:44;;;;;;;74.87;30.92;;;;;;;0.37;83.57;98731.67;2082379;85;21728;-64
2021/01/04 06:25:46;;;;;;;75.75;32.15;;;;;;;0.28;83.38;98735.30;2076702;86;21186;-65
2021/01/04 06:28:48;;;;;;;70.12;29.27;;;;;;;0.22;83.51;98738.01;2082711;85;21303;-64
2021/01/04 06:31:51;;;;;;;66.12;28.55;;;;;;;0.12;83.84;98738.17;2067671;85;21304;-66
2021/01/04 06:34:53;;;;;;;72.25;28.23;;;;;;;0.02;83.75;98739.25;2082435;85;21763;-67
2021/01/04 06:37:55;;;;;;;59.30;25.40;;;;;;;-0.05;84.12;98732.51;2082246;85;21327;-65
2021/01/04 06:40:57;;;;;;;92.45;42.45;;;;;;;-0.13;84.09;98729.22;2082490;85;21732;-65
2021/01/04 06:43:59;;;;;;;58.52;25.62;;;;;;;-0.18;84.39;98730.15;2084915;84;21284;-64
2021/01/04 06:47:01;;;;;;;54.45;24.80;;;;;;;-0.21;84.33;98732.80;2107593;84;21720;-64
2021/01/04 06:50:03;;;;;;;61.58;27.32;;;;;;;-0.21;84.42;98740.98;2107371;84;21302;-63
2021/01/04 06:53:05;;;;;;;52.03;24.95;;;;;;;-0.24;84.16;98754.77;2108376;84;21369;-64
2021/01/04 06:56:07;;;;;;;44.77;20.68;;;;;;;-0.24;84.30;98756.05;2128895;83;21583;-64
2021/01/04 06:59:10;;;;;;;48.90;23.05;;;;;;;-0.23;84.10;98760.34;2128760;84;21598;-65
2021/01/04 07:02:12;;;;;;;54.95;25.43;;;;;;;-0.14;84.20;98767.05;2129097;84;21289;-64
2021/01/04 07:05:14;;;;;;;55.20;25.30;;;;;;;-0.03;84.17;98763.84;2107426;84;21169;-65
2021/01/04 07:08:16;;;;;;;58.40;26.97;;;;;;;0.22;84.49;98758.20;2107958;84;21162;-64
2021/01/04 07:11:18;;;;;;;50.67;23.73;;;;;;;0.36;83.91;98755.34;2107352;84;21299;-65
2021/01/04 07:14:20;;;;;;;50.65;23.27;;;;;;;0.30;83.06;98766.64;2108392;84;21341;-64
2021/01/04 07:17:23;;;;;;;63.33;29.77;;;;;;;0.11;83.28;98775.61;2107373;84;21283;-65
2021/01/04 07:20:25;;;;;;;63.33;29.18;;;;;;;0.20;83.61;98781.87;2107465;84;21596;-64
2021/01/04 07:23:27;;;;;;;50.33;24.30;;;;;;;0.29;83.57;98780.86;2108200;84;21159;-64
2021/01/04 07:26:30;;;;;;;50.88;23.42;;;;;;;0.36;83.23;98788.02;2107372;84;21298;-64
2021/01/04 07:29:32;;;;;;;45.20;21.23;;;;;;;0.37;83.08;98789.73;2107476;84;21152;-64
2021/01/04 07:32:34;;;;;;;47.17;21.42;;;;;;;0.37;82.99;98791.86;2108072;84;21190;-65
2021/01/04 07:35:36;;;;;;;46.30;19.75;;;;;;;0.35;83.12;98809.11;2107594;84;21354;-64
2021/01/04 07:38:38;;;;;;;43.55;19.90;;;;;;;0.38;83.07;98810.79;2107575;84;21284;-65
2021/01/04 07:41:41;;;;;;;51.13;22.62;;;;;;;0.43;83.08;98815.41;2108198;84;21182;-64
2021/01/04 07:44:43;;;;;;;;;;;;;;;0.39;82.87;98820.21;2109673;84;21297;-64
2021/01/04 07:47:45;;;;;;;52.03;24.53;;;;;;;0.32;82.88;98816.92;2107587;84;20521;-63
2021/01/04 07:50:47;;;;;;;46.70;21.50;;;;;;;0.31;82.99;98817.34;2107331;84;21265;-64
2021/01/04 07:53:50;;;;;;;44.53;20.48;;;;;;;0.22;82.93;98818.82;2081375;84;21734;-64
2021/01/04 07:56:53;;;;;;;46.30;20.43;;;;;;;0.12;83.09;98818.14;2107537;84;21722;-64
2021/01/04 07:59:55;;;;;;;44.77;20.57;;;;;;;0.08;83.20;98822.10;2107504;84;21318;-64
2021/01/04 08:02:57;;;;;;;50.67;22.42;;;;;;;0.02;83.46;98816.62;2081534;84;21724;-64
2021/01/04 08:06:00;;;;;;;51.95;23.42;;;;;;;0.19;83.83;98825.75;2107633;84;21567;-64
2021/01/04 08:09:02;;;;;;;50.67;23.18;;;;;;;0.31;83.58;98819.92;2107730;84;21571;-64
2021/01/04 08:12:04;;;;;;;49.40;22.95;;;;;;;0.38;83.52;98815.50;2107735;84;21270;-65
2021/01/04 08:15:06;;;;;;;52.90;24.85;;;;;;;0.51;83.56;98821.27;2107590;84;21702;-66
2021/01/04 08:18:09;;;;;;;46.90;21.25;;;;;;;0.62;83.49;98816.74;2107474;84;21269;-69
2021/01/04 08:21:11;;;;;;;45.17;20.48;;;;;;;0.77;83.46;98823.30;2107974;84;21143;-64
2021/01/04 08:24:13;;;;;;;43.85;20.17;;;;;;;0.93;83.32;98828.98;2107585;84;21726;-65
2021/01/04 08:27:15;;;;;;;42.48;19.30;;;;;;;0.99;83.04;98837.05;2107845;84;21309;-64
2021/01/04 08:30:17;;;;;;;42.53;20.17;;;;;;;0.97;83.20;98837.53;2107492;84;21155;-65
2021/01/04 08:33:19;;;;;;;43.87;20.32;;;;;;;1.02;83.34;98833.97;2107635;84;21723;-64
2021/01/04 08:36:23;;;;;;;42.67;20.20;;;;;;;1.01;83.36;98825.80;2107473;84;21713;-65
2021/01/04 08:39:25;;;;;;;46.33;21.45;;;;;;;1.10;83.53;98830.36;2107508;84;21286;-64
2021/01/04 08:42:27;;;;;;;48.48;22.70;;;;;;;1.32;83.04;98829.42;2107576;84;21714;-67
2021/01/04 08:45:29;;;;;;;48.48;22.10;;;;;;;1.32;83.04;98829.42;2091265;84;21308;-65
2021/01/04 08:48:32;;;;;;;49.45;23.20;;;;;;;1.34;82.85;98831.09;2082365;85;21307;-64
2021/01/04 08:51:34;;;;;;;48.42;23.45;;;;;;;1.47;83.39;98822.59;2082816;85;21170;-64
2021/01/04 08:54:36;;;;;;;51.88;23.80;;;;;;;1.60;82.77;98827.03;2082473;85;21728;-66
2021/01/04 08:57:38;;;;;;;48.98;23.25;;;;;;;1.83;83.18;98825.61;2082706;85;21577;-66
2021/01/04 09:00:41;;;;;;;53.28;24.95;;;;;;;2.08;82.41;98820.64;2082496;85;21732;-64
2021/01/04 09:03:43;;;;;;;;;;;;;;;2.23;82.27;98816.80;2084707;85;21303;-64
2021/01/04 09:06:45;;;;;;;59.77;27.40;;;;;;;2.37;81.85;98818.57;2067153;86;20259;-69
2021/01/04 09:09:47;;;;;;;53.63;24.15;;;;;;;2.35;81.70;98820.33;2082593;85;21295;-65
2021/01/04 09:12:52;;;;;;;47.78;21.27;;;;;;;2.40;82.40;98826.25;2082501;85;21339;-64
2021/01/04 09:15:55;;;;;;;53.63;25.32;;;;;;;2.57;82.06;98820.59;2082559;85;21189;-64
2021/01/04 09:18:57;;;;;;;57.20;28.07;;;;;;;2.41;81.50;98818.89;2082782;85;21186;-64
2021/01/04 09:21:59;;;;;;;47.08;21.95;;;;;;;2.22;81.86;98817.23;2082404;85;21747;-64
2021/01/04 09:25:01;;;;;;;47.00;22.27;;;;;;;2.37;82.76;98817.28;2067452;86;21624;-64
2021/01/04 09:28:03;;;;;;;47.73;23.02;;;;;;;2.53;82.44;98820.28;2082765;85;21161;-65
2021/01/04 09:31:06;;;;;;;46.83;21.48;;;;;;;2.61;82.42;98812.28;2082438;85;21712;-64
2021/01/04 09:34:08;;;;;;;47.00;21.30;;;;;;;2.67;82.27;98813.42;2082606;85;21311;-64
2021/01/04 09:37:10;;;;;;;45.90;21.75;;;;;;;2.94;82.64;98808.30;2082323;85;21142;-64
2021/01/04 09:40:12;;;;;;;46.65;23.62;;;;;;;2.99;80.90;98801.25;2067253;86;21329;-64
2021/01/04 09:43:15;;;;;;;49.18;23.95;;;;;;;2.84;81.54;98804.30;2082318;85;21296;-64
2021/01/04 09:46:17;;;;;;;49.33;23.18;;;;;;;2.87;81.89;98799.02;2076461;84;21193;-64
2021/01/04 09:49:19;;;;;;;;;;;;;;;3.04;82.43;98792.87;2094138;85;21184;-64
2021/01/04 09:52:22;;;;;;;52.25;24.40;;;;;;;3.02;81.78;98786.89;2077262;86;20176;-64
2021/01/04 09:55:24;;;;;;;46.55;21.60;;;;;;;3.04;82.45;98796.75;2091616;85;21625;-64
2021/01/04 09:58:26;;;;;;;49.77;24.60;;;;;;;3.02;82.12;98791.24;2076968;86;21308;-64
2021/01/04 10:01:29;;;;;;;52.25;24.67;;;;;;;3.11;82.31;98776.69;2091746;85;21146;-65
2021/01/04 10:04:31;;;;;;;51.20;25.48;;;;;;;3.20;82.27;98773.79;2077421;86;21194;-65
2021/01/04 10:07:33;;;;;;;55.03;27.75;;;;;;;3.15;82.46;98769.65;2091703;85;21156;-65
2021/01/04 10:10:39;;;;;;;60.70;30.10;;;;;;;3.22;82.46;98768.55;2076821;86;21297;-64
2021/01/04 10:13:40;;;;;;;56.53;27.30;;;;;;;3.40;82.66;98762.78;2063800;85;21161;-65
2021/01/04 10:16:43;;;;;;;61.95;29.60;;;;;;;3.58;82.01;98760.04;2076771;86;21311;-64
2021/01/04 10:19:45;;;;;;;55.67;27.20;;;;;;;3.73;82.06;98755.23;2091703;85;21291;-64
2021/01/04 10:22:47;;;;;;;58.08;28.80;;;;;;;3.86;81.98;98749.17;2076569;86;21590;-65
2021/01/04 10:25:49;;;;;;;61.75;30.55;;;;;;;4.02;82.00;98761.98;2091820;85;21597;-64
2021/01/04 10:28:52;;;;;;;63.23;31.20;;;;;;;4.25;81.65;98757.73;2076873;86;21625;-66
2021/01/04 10:31:57;;;;;;;66.53;33.08;;;;;;;4.48;81.97;98749.09;2091669;85;21553;-65
2021/01/04 10:34:59;;;;;;;63.48;31.80;;;;;;;4.72;81.28;98746.48;2076965;86;21331;-64
2021/01/04 10:38:01;;;;;;;69.42;33.95;;;;;;;4.82;81.23;98746.52;2092168;85;21299;-64
2021/01/04 10:41:03;;;;;;;67.10;33.88;;;;;;;5.04;80.92;98737.41;2076467;86;21130;-64
2021/01/04 10:44:05;;;;;;;71.57;35.52;;;;;;;5.30;80.61;98732.92;2091806;85;21601;-65
2021/01/04 10:47:08;;;;;;;71.33;35.65;;;;;;;5.65;80.29;98734.53;2078694;84;21214;-65
2021/01/04 10:50:10;;;;;;;73.07;35.88;;;;;;;5.98;79.80;98730.13;2068984;85;21304;-66
2021/01/04 10:53:12;;;;;;;83.33;36.80;;;;;;;6.21;79.31;98733.01;2083497;85;21328;-65
2021/01/04 10:56:14;;;;;;;68.52;35.55;;;;;;;6.46;79.21;98724.91;2069033;85;21304;-67
2021/01/04 10:59:16;;;;;;;69.00;33.90;;;;;;;6.75;78.91;98732.70;2095204;85;21303;-65
2021/01/04 11:02:19;;;;;;;71.07;35.55;;;;;;;6.79;77.80;98731.25;2094890;85;21723;-65
2021/01/04 11:05:21;;;;;;;70.55;34.90;;;;;;;6.89;76.62;98740.33;2068910;85;21320;-66
2021/01/04 11:08:23;;;;;;;71.45;35.55;;;;;;;6.56;75.66;98743.11;2094982;85;21287;-65
2021/01/04 11:11:25;;;;;;;86.57;40.35;;;;;;;6.26;76.75;98735.40;2094863;85;21295;-66
2021/01/04 11:14:29;;;;;;;77.47;38.63;;;;;;;6.24;77.51;98725.89;2094685;85;21728;-66
2021/01/04 11:17:32;;;;;;;80.77;40.05;;;;;;;5.85;76.42;98722.80;2094818;85;21739;-64
2021/01/04 11:20:34;;;;;;;;;;;;;;;5.58;78.30;98723.98;2085422;85;21609;-67
2021/01/04 11:23:36;;;;;;;64.95;31.52;;;;;;;5.68;78.88;98713.11;2083422;85;20251;-67
2021/01/04 11:26:38;;;;;;;73.07;31.90;;;;;;;5.55;78.71;98717.16;2095181;85;21298;-65
2021/01/04 11:29:41;;;;;;;81.20;38.63;;;;;;;5.54;79.07;98716.28;2094806;85;21783;-64
2021/01/04 11:32:43;;;;;;;84.32;39.58;;;;;;;5.55;78.83;98706.75;2082978;85;21708;-64
2021/01/04 11:35:45;;;;;;;76.95;37.30;;;;;;;5.30;78.72;98703.88;2068920;85;21312;-64
2021/01/04 11:38:48;;;;;;;82.62;38.55;;;;;;;5.02;79.33;98702.38;2083322;85;21307;-64
2021/01/04 11:41:50;;;;;;;86.78;42.93;;;;;;;4.96;80.12;98710.91;2094832;85;21729;-66
2021/01/04 11:44:52;;;;;;;85.32;40.88;;;;;;;4.99;79.84;98731.57;2095145;85;21157;-65
2021/01/04 11:47:54;;;;;;;83.25;42.40;;;;;;;4.91;79.79;98737.05;2106630;84;21343;-64
2021/01/04 11:50:56;;;;;;;73.52;36.95;;;;;;;4.86;80.01;98726.84;2087532;85;21186;-64
2021/01/04 11:53:59;;;;;;;77.42;38.02;;;;;;;4.79;79.97;98727.98;2111141;84;21595;-65
2021/01/04 11:57:01;;;;;;;80.92;39.13;;;;;;;4.74;80.38;98727.77;2087293;85;21609;-64
2021/01/04 12:00:03;;;;;;;90.95;44.63;;;;;;;4.66;80.45;98723.72;2107799;84;21160;-64
2021/01/04 12:03:08;;;;;;;91.50;44.60;;;;;;;4.74;80.42;98720.84;2087288;85;21176;-65
2021/01/04 12:06:10;;;;;;;72.62;35.80;;;;;;;4.93;80.34;98717.50;2045439;87;21347;-65
2021/01/04 12:09:12;;;;;;;68.62;33.20;;;;;;;5.21;80.00;98722.44;2110910;84;21117;-64
2021/01/04 12:12:14;;;;;;;66.22;33.18;;;;;;;5.44;79.65;98720.19;2084676;84;21727;-65
2021/01/04 12:15:17;;;;;;;59.27;31.35;;;;;;;5.69;79.16;98720.02;2110408;84;21302;-65
2021/01/04 12:18:19;;;;;;;60.92;31.07;;;;;;;5.86;79.19;98717.99;2110646;84;21165;-65
2021/01/04 12:21:22;;;;;;;56.90;28.27;;;;;;;6.07;78.34;98721.89;2110681;84;21173;-64
2021/01/04 12:24:24;;;;;;;56.20;28.07;;;;;;;6.13;78.33;98729.89;2110491;84;21327;-65
2021/01/04 12:27:26;;;;;;;57.20;28.83;;;;;;;6.18;77.69;98727.47;2110870;84;21148;-64
2021/01/04 12:30:29;;;;;;;60.85;30.12;;;;;;;6.14;76.72;98735.50;2110428;84;21311;-64
2021/01/04 12:33:31;;;;;;;62.13;30.37;;;;;;;5.89;76.82;98737.38;2110734;84;21346;-65
2021/01/04 12:36:33;;;;;;;60.38;30.50;;;;;;;5.52;77.64;98738.10;2110611;84;21164;-65
2021/01/04 12:39:35;;;;;;;65.08;31.10;;;;;;;5.27;78.12;98735.22;2110631;84;21164;-68
2021/01/04 12:42:37;;;;;;;63.48;29.95;;;;;;;4.98;78.70;98735.91;2110883;84;21339;-67
2021/01/04 12:45:40;;;;;;;61.13;30.57;;;;;;;4.83;79.42;98736.53;2085176;84;21173;-64
2021/01/04 12:48:42;;;;;;;61.02;31.20;;;;;;;4.77;79.62;98736.74;2118569;84;21721;-64
2021/01/04 12:51:44;;;;;;;62.20;29.67;;;;;;;4.77;79.69;98736.31;2118399;84;21261;-64
2021/01/04 12:54:46;;;;;;;63.30;30.45;;;;;;;4.68;79.63;98734.91;2082509;85;21327;-64
2021/01/04 12:57:48;;;;;;;66.67;31.68;;;;;;;4.56;79.83;98736.67;2076806;86;21304;-64
2021/01/04 13:00:53;;;;;;;61.05;29.65;;;;;;;4.46;80.08;98734.03;2082176;85;21755;-64
2021/01/04 13:03:55;;;;;;;59.50;28.62;;;;;;;4.43;80.37;98740.18;2067243;86;21789;-64
2021/01/04 13:06:57;;;;;;;62.85;29.32;;;;;;;4.47;80.51;98730.08;2082585;85;21291;-64
2021/01/04 13:10:00;;;;;;;62.53;29.42;;;;;;;4.37;80.25;98731.76;2076554;86;21660;-64
2021/01/04 13:13:02;;;;;;;61.95;29.98;;;;;;;4.31;80.55;98735.42;2062527;85;21324;-64
2021/01/04 13:16:04;;;;;;;64.20;29.72;;;;;;;4.25;80.63;98734.36;2067355;86;21130;-64
2021/01/04 13:19:06;;;;;;;64.25;29.23;;;;;;;4.11;80.95;98733.59;2082441;85;21303;-64
2021/01/04 13:22:08;;;;;;;64.35;29.63;;;;;;;4.02;81.20;98726.95;2076495;86;21174;-65
2021/01/04 13:25:10;;;;;;;62.33;30.57;;;;;;;4.02;81.70;98730.01;2082441;85;21347;-66
2021/01/04 13:28:12;;;;;;;63.40;30.40;;;;;;;4.01;81.44;98738.26;2082348;85;21276;-67
2021/01/04 13:31:15;;;;;;;65.65;30.72;;;;;;;4.00;81.67;98740.45;2082287;85;21787;-65
2021/01/04 13:34:17;;;;;;;67.10;30.00;;;;;;;3.98;81.66;98740.50;2062505;85;21158;-68
2021/01/04 13:37:19;;;;;;;64.80;30.40;;;;;;;3.93;81.67;98741.56;2067480;86;21187;-65
2021/01/04 13:40:21;;;;;;;64.72;31.42;;;;;;;3.79;81.73;98741.61;2082794;85;21122;-65
2021/01/04 13:43:24;;;;;;;63.60;29.65;;;;;;;3.79;81.73;98741.61;2082320;85;21775;-64
2021/01/04 13:46:26;;;;;;;65.52;30.23;;;;;;;3.71;82.11;98741.48;2078410;84;21719;-66
2021/01/04 13:49:28;;;;;;;67.78;31.85;;;;;;;3.55;82.21;98751.50;2094830;85;21275;-66
2021/01/04 13:52:30;;;;;;;66.42;30.88;;;;;;;3.40;82.49;98746.39;2094844;85;21153;-64
2021/01/04 13:55:33;;;;;;;62.53;30.05;;;;;;;3.33;82.63;98745.73;2095195;85;21311;-65
2021/01/04 13:58:36;;;;;;;64.77;29.52;;;;;;;3.27;82.90;98749.83;2094798;85;21315;-64
2021/01/04 14:01:38;;;;;;;64.40;30.15;;;;;;;3.24;83.04;98740.39;2094876;85;21279;-64
2021/01/04 14:04:40;;;;;;;67.22;30.10;;;;;;;3.22;83.10;98736.16;2069019;85;21755;-64
2021/01/04 14:07:43;;;;;;;62.70;28.90;;;;;;;3.15;83.31;98731.64;2094790;85;21125;-63
2021/01/04 14:10:45;;;;;;;58.23;28.23;;;;;;;2.98;83.50;98733.92;2095220;85;21318;-64